STN weather

London Stansted Airport
London, England, United Kingdom

Public forecast

Using degrees Celsius for public forecast. Weather courtesy of forecast.io.

Current aviation weather report (METAR) for London Stansted Airport

Retrieved 2020/08/07 23:50 UTC (12 minutes ago):

EGSS 072350Z AUTO VRB02KT 9999 NCD 23/13 Q1019

Aviation forecast (TAF) for London Stansted Airport

Retrieved 2020-08-08 00:18 UTC (0 seconds ago):

TAF TAF EGSS 072315Z 0800/0906 VRB05KT CAVOK BECMG 0804/0807 02010KT TEMPO 0821/0906 8000 BKN005 PROB40 0822/0906 2000 BR BKN001